createdAt,value
2022-09-09T00:00:35.950Z,100176.09
2022-09-09T00:03:18.102Z,100174.31
2022-09-09T00:06:00.905Z,100172.03
2022-09-09T00:08:58.622Z,100171.63
2022-09-09T00:11:33.572Z,100166.88
2022-09-09T00:14:01.804Z,100167.13
2022-09-09T00:16:31.963Z,100170.84
2022-09-09T00:19:07.454Z,100167.19
2022-09-09T00:21:37.313Z,100160.84
2022-09-09T00:24:40.314Z,100163.69
2022-09-09T00:27:20.722Z,100162.25
2022-09-09T00:30:15.826Z,100159.00
2022-09-09T00:32:42.915Z,100155.91
2022-09-09T00:35:25.027Z,100149.72
2022-09-09T00:37:55.964Z,100149.88
2022-09-09T00:40:31.976Z,100154.25
2022-09-09T00:43:31.262Z,100157.50
2022-09-09T00:46:30.111Z,100162.00
2022-09-09T00:49:06.392Z,100155.97
2022-09-09T00:51:56.578Z,100155.41
2022-09-09T00:54:36.837Z,100159.22
2022-09-09T00:57:35.929Z,100157.53
2022-09-09T01:00:29.272Z,100161.63
2022-09-09T01:03:21.908Z,100163.03
2022-09-09T01:06:03.978Z,100163.50
2022-09-09T01:08:51.393Z,100167.03
2022-09-09T01:11:23.678Z,100171.41
2022-09-09T01:13:57.036Z,100172.41
2022-09-09T01:16:24.017Z,100182.81
2022-09-09T01:18:54.195Z,100184.53
2022-09-09T01:21:36.580Z,100178.59
2022-09-09T01:24:18.836Z,100179.59
2022-09-09T01:27:08.924Z,100178.06
2022-09-09T01:29:35.917Z,100182.84
2022-09-09T01:32:37.700Z,100171.88
2022-09-09T01:35:05.439Z,100171.97
2022-09-09T01:37:32.360Z,100165.66
2022-09-09T01:39:59.334Z,100178.63
2022-09-09T01:42:26.333Z,100179.03
2022-09-09T01:44:55.428Z,100158.75
2022-09-09T01:47:22.430Z,100173.53
2022-09-09T01:50:15.581Z,100180.75
2022-09-09T01:52:43.919Z,100175.94
2022-09-09T01:55:13.157Z,100171.72
2022-09-09T01:57:51.503Z,100170.59
2022-09-09T02:00:18.420Z,100176.97
2022-09-09T02:03:09.085Z,100173.56
2022-09-09T02:06:15.401Z,100170.44
2022-09-09T02:08:50.188Z,100174.84
2022-09-09T02:11:23.011Z,100173.56
2022-09-09T02:14:01.934Z,100179.03
2022-09-09T02:16:28.916Z,100177.50
2022-09-09T02:19:16.712Z,100177.91
2022-09-09T02:22:04.618Z,100184.25
2022-09-09T02:24:34.903Z,100180.91
2022-09-09T02:27:13.347Z,100182.59
2022-09-09T02:29:42.704Z,100190.47
2022-09-09T02:32:14.259Z,100190.19
2022-09-09T02:34:45.077Z,100182.31
2022-09-09T02:37:13.269Z,100177.78
2022-09-09T02:39:44.263Z,100182.13
2022-09-09T02:42:16.061Z,100190.59
2022-09-09T02:44:44.228Z,100190.16
2022-09-09T02:47:29.706Z,100189.06
2022-09-09T02:50:18.704Z,100188.50
2022-09-09T02:52:54.415Z,100185.81
2022-09-09T02:55:41.115Z,100184.28
2022-09-09T02:58:13.001Z,100189.03
2022-09-09T03:00:41.336Z,100196.69
2022-09-09T03:03:10.110Z,100186.25
2022-09-09T03:05:38.456Z,100185.13
2022-09-09T03:08:06.672Z,100184.81
2022-09-09T03:10:34.209Z,100185.97
2022-09-09T03:13:01.231Z,100181.59
2022-09-09T03:15:35.066Z,100183.84
2022-09-09T03:18:59.629Z,100190.47
2022-09-09T03:21:43.858Z,100191.72
2022-09-09T03:24:15.160Z,100196.78
2022-09-09T03:26:45.789Z,100197.75
2022-09-09T03:29:15.920Z,100206.38
2022-09-09T03:34:13.778Z,100203.94
2022-09-09T03:36:42.295Z,100195.91
2022-09-09T03:39:12.779Z,100198.59
2022-09-09T03:41:42.345Z,100193.81
2022-09-09T03:44:10.161Z,100195.38
2022-09-09T03:46:39.768Z,100206.78
2022-09-09T03:49:06.675Z,100189.31
2022-09-09T03:51:37.344Z,100204.22
2022-09-09T03:54:09.324Z,100196.88
2022-09-09T03:56:37.607Z,100207.06
2022-09-09T03:59:05.222Z,100210.13
2022-09-09T04:01:32.266Z,100212.25
2022-09-09T04:03:59.354Z,100210.56
2022-09-09T04:06:27.118Z,100213.25
2022-09-09T04:08:54.414Z,100214.06
2022-09-09T04:11:22.252Z,100210.16
2022-09-09T04:13:51.692Z,100218.44
2022-09-09T04:16:19.377Z,100207.59
2022-09-09T04:18:46.296Z,100215.53
2022-09-09T04:21:15.581Z,100215.53
2022-09-09T04:23:42.447Z,100208.59
2022-09-09T04:26:10.204Z,100202.53
2022-09-09T04:28:38.500Z,100206.56
2022-09-09T04:31:16.673Z,100207.28
2022-09-09T04:33:44.213Z,100207.00
2022-09-09T04:36:11.152Z,100204.63
2022-09-09T04:38:38.560Z,100210.94
2022-09-09T04:41:05.918Z,100206.03
2022-09-09T04:43:35.553Z,100221.41
2022-09-09T04:46:05.348Z,100211.00
2022-09-09T04:48:32.870Z,100216.34
2022-09-09T04:51:06.415Z,100222.25
2022-09-09T04:53:38.488Z,100231.09
2022-09-09T04:56:14.142Z,100235.19
2022-09-09T04:58:47.364Z,100234.34
2022-09-09T05:01:23.190Z,100233.50
2022-09-09T05:03:51.674Z,100240.66
2022-09-09T05:06:24.547Z,100240.41
2022-09-09T05:08:59.288Z,100233.66
2022-09-09T05:11:31.303Z,100237.19
2022-09-09T05:14:03.216Z,100243.13
2022-09-09T05:16:32.421Z,100243.69
2022-09-09T05:19:00.314Z,100244.25
2022-09-09T05:21:35.416Z,100245.81
2022-09-09T05:24:02.499Z,100243.72
2022-09-09T05:26:32.794Z,100241.16
2022-09-09T05:29:01.732Z,100235.69
2022-09-09T05:31:31.407Z,100243.16
2022-09-09T05:34:01.322Z,100240.50
2022-09-09T05:36:28.393Z,100239.50
2022-09-09T05:38:56.911Z,100251.63
2022-09-09T05:41:25.951Z,100251.34
2022-09-09T05:43:55.846Z,100252.34
2022-09-09T05:46:26.395Z,100251.91
2022-09-09T05:48:55.093Z,100252.94
2022-09-09T05:51:31.147Z,100252.22
2022-09-09T05:54:00.113Z,100254.34
2022-09-09T05:56:30.623Z,100247.56
2022-09-09T05:59:01.285Z,100247.44
2022-09-09T06:01:34.036Z,100244.34
2022-09-09T06:04:02.601Z,100253.25
2022-09-09T06:06:38.164Z,100247.44
2022-09-09T06:09:11.415Z,100244.06
2022-09-09T06:11:41.312Z,100232.06
2022-09-09T06:14:08.722Z,100244.91
2022-09-09T06:16:35.901Z,100249.84
2022-09-09T06:19:04.471Z,100249.97
2022-09-09T06:21:39.883Z,100258.16
2022-09-09T06:24:08.705Z,100263.22
2022-09-09T06:26:38.551Z,100265.22
2022-09-09T06:29:05.527Z,100258.56
2022-09-09T06:31:35.662Z,100272.53
2022-09-09T06:34:12.547Z,100271.00
2022-09-09T06:36:42.234Z,100273.53
2022-09-09T06:39:15.033Z,100277.44
2022-09-09T06:41:43.828Z,100268.84
2022-09-09T06:44:35.220Z,100265.72
2022-09-09T06:47:03.248Z,100266.38
2022-09-09T06:49:30.321Z,100270.91
2022-09-09T06:51:57.287Z,100269.06
2022-09-09T06:54:26.499Z,100279.94
2022-09-09T06:56:54.091Z,100284.28
2022-09-09T06:59:23.876Z,100268.50
2022-09-09T07:01:56.220Z,100289.13
2022-09-09T07:04:23.847Z,100285.00
2022-09-09T07:06:51.306Z,100286.25
2022-09-09T07:09:22.715Z,100283.56
2022-09-09T07:11:53.892Z,100283.72
2022-09-09T07:14:23.104Z,100285.66
2022-09-09T07:16:59.496Z,100283.41
2022-09-09T07:19:27.616Z,100285.34
2022-09-09T07:21:55.829Z,100286.88
2022-09-09T07:24:24.781Z,100286.16
2022-09-09T07:26:53.257Z,100285.41
2022-09-09T07:29:30.853Z,100277.69
2022-09-09T07:32:01.251Z,100278.59
2022-09-09T07:34:36.226Z,100280.84
2022-09-09T07:37:03.299Z,100280.84
2022-09-09T07:39:31.183Z,100278.72
2022-09-09T07:41:59.864Z,100282.19
2022-09-09T07:44:28.065Z,100277.75
2022-09-09T07:47:03.716Z,100283.34
2022-09-09T07:49:37.221Z,100277.41
2022-09-09T07:54:33.928Z,100288.84
2022-09-09T07:57:05.091Z,100291.28
2022-09-09T07:59:34.811Z,100284.53
2022-09-09T08:02:07.313Z,100285.75
2022-09-09T08:04:35.880Z,100295.75
2022-09-09T08:07:04.851Z,100302.06
2022-09-09T08:09:37.975Z,100294.06
2022-09-09T08:12:14.351Z,100293.78
2022-09-09T08:14:41.448Z,100285.47
2022-09-09T08:17:08.294Z,100294.38
2022-09-09T08:19:38.031Z,100289.84
2022-09-09T08:22:10.384Z,100298.91
2022-09-09T08:24:40.480Z,100293.75
2022-09-09T08:27:11.262Z,100296.81
2022-09-09T08:29:39.146Z,100295.66
2022-09-09T08:32:06.499Z,100300.34
2022-09-09T08:34:41.269Z,100304.50
2022-09-09T08:37:18.158Z,100296.94
2022-09-09T08:39:45.153Z,100296.31
2022-09-09T08:42:21.802Z,100304.31
2022-09-09T08:45:02.193Z,100317.28
2022-09-09T08:48:05.740Z,100321.28
2022-09-09T08:50:36.564Z,100314.94
2022-09-09T08:53:17.714Z,100304.38
2022-09-09T08:55:54.505Z,100313.19
2022-09-09T08:58:32.876Z,100317.81
2022-09-09T09:01:12.503Z,100317.47
2022-09-09T09:04:14.831Z,100318.66
2022-09-09T09:07:05.945Z,100311.44
2022-09-09T09:09:53.041Z,100314.81
2022-09-09T09:12:25.573Z,100308.25
2022-09-09T09:14:56.639Z,100306.25
2022-09-09T09:17:28.813Z,100311.50
2022-09-09T09:19:56.176Z,100314.41
2022-09-09T09:22:39.005Z,100312.06
2022-09-09T09:25:29.508Z,100315.78
2022-09-09T09:28:06.975Z,100309.06
2022-09-09T09:30:47.255Z,100303.84
2022-09-09T09:33:28.532Z,100303.53
2022-09-09T09:35:56.560Z,100297.63
2022-09-09T09:41:18.381Z,100307.78
2022-09-09T09:43:54.965Z,100305.22
2022-09-09T09:46:25.058Z,100305.25
2022-09-09T09:49:10.918Z,100300.97
2022-09-09T09:51:38.988Z,100308.44
2022-09-09T09:54:27.079Z,100317.69
2022-09-09T09:57:11.225Z,100307.56
2022-09-09T09:59:41.230Z,100307.03
2022-09-09T10:02:28.265Z,100305.34
2022-09-09T10:05:04.080Z,100306.22
2022-09-09T10:07:31.645Z,100314.31
2022-09-09T10:09:59.438Z,100309.22
2022-09-09T10:12:50.011Z,100316.19
2022-09-09T10:15:24.738Z,100315.34
2022-09-09T10:18:06.904Z,100314.50
2022-09-09T10:20:47.287Z,100309.81
2022-09-09T10:23:26.709Z,100307.06
2022-09-09T10:26:08.807Z,100322.25
2022-09-09T10:28:56.774Z,100313.16
2022-09-09T10:31:31.468Z,100313.78
2022-09-09T10:34:25.702Z,100313.06
2022-09-09T10:36:55.245Z,100312.56
2022-09-09T10:39:37.819Z,100316.38
2022-09-09T10:42:09.260Z,100309.38
2022-09-09T10:45:06.536Z,100311.00
2022-09-09T10:47:42.735Z,100325.16
2022-09-09T10:50:28.200Z,100318.88
2022-09-09T10:53:14.954Z,100319.19
2022-09-09T10:55:48.012Z,100324.28
2022-09-09T10:58:20.443Z,100317.41
2022-09-09T11:00:56.089Z,100315.47
2022-09-09T11:03:34.606Z,100322.72
2022-09-09T11:06:13.372Z,100320.25
2022-09-09T11:08:41.005Z,100319.41
2022-09-09T11:11:27.476Z,100314.28
2022-09-09T11:14:13.767Z,100312.59
2022-09-09T11:16:43.872Z,100307.91
2022-09-09T11:19:36.201Z,100320.78
2022-09-09T11:22:07.902Z,100316.72
2022-09-09T11:24:44.817Z,100316.25
2022-09-09T11:27:17.341Z,100313.66
2022-09-09T11:30:02.744Z,100322.25
2022-09-09T11:32:46.814Z,100308.81
2022-09-09T11:35:47.707Z,100313.31
2022-09-09T11:38:52.475Z,100318.25
2022-09-09T11:41:22.108Z,100314.69
2022-09-09T11:43:53.237Z,100316.41
2022-09-09T11:46:34.961Z,100311.03
2022-09-09T11:49:09.349Z,100320.56
2022-09-09T11:51:36.535Z,100313.56
2022-09-09T11:54:30.495Z,100314.66
2022-09-09T11:56:57.867Z,100318.22
2022-09-09T11:59:26.840Z,100306.28
2022-09-09T12:02:16.053Z,100311.31
2022-09-09T12:04:52.351Z,100300.94
2022-09-09T12:07:45.256Z,100301.84
2022-09-09T12:10:33.969Z,100302.75
2022-09-09T12:13:24.405Z,100297.44
2022-09-09T12:15:54.796Z,100289.16
2022-09-09T12:18:26.490Z,100296.84
2022-09-09T12:21:09.719Z,100285.38
2022-09-09T12:23:43.592Z,100278.31
2022-09-09T12:26:26.138Z,100279.50
2022-09-09T12:29:22.620Z,100279.56
2022-09-09T12:32:12.633Z,100278.31
2022-09-09T12:34:42.355Z,100276.81
2022-09-09T12:37:28.497Z,100279.22
2022-09-09T12:39:56.878Z,100279.22
2022-09-09T12:42:24.674Z,100277.13
2022-09-09T12:44:55.914Z,100262.59
2022-09-09T12:47:39.853Z,100273.66
2022-09-09T12:50:20.138Z,100266.13
2022-09-09T12:52:48.655Z,100269.00
2022-09-09T12:55:26.360Z,100278.44
2022-09-09T12:57:53.439Z,100266.81
2022-09-09T13:00:25.298Z,100267.38
2022-09-09T13:03:21.340Z,100260.88
2022-09-09T13:05:49.172Z,100243.72
2022-09-09T13:08:22.298Z,100257.44
2022-09-09T13:11:02.529Z,100270.84
2022-09-09T13:13:55.568Z,100266.38
2022-09-09T13:16:34.287Z,100261.53
2022-09-09T13:19:08.437Z,100265.94
2022-09-09T13:21:38.406Z,100265.22
2022-09-09T13:24:08.611Z,100275.19
2022-09-09T13:26:35.825Z,100266.16
2022-09-09T13:29:29.133Z,100264.13
2022-09-09T13:44:33.300Z,100247.00
2022-09-09T13:47:28.758Z,100245.78
2022-09-09T13:50:25.194Z,100245.69
2022-09-09T13:52:54.485Z,100247.66
2022-09-09T13:55:23.171Z,100244.25
2022-09-09T13:58:14.607Z,100250.41
2022-09-09T14:01:12.564Z,100245.47
2022-09-09T14:03:39.333Z,100245.72
2022-09-09T14:06:06.150Z,100242.22
2022-09-09T14:08:38.346Z,100250.09
2022-09-09T14:11:05.634Z,100247.78
2022-09-09T14:13:33.300Z,100249.00
2022-09-09T14:16:00.174Z,100239.97
2022-09-09T14:18:27.022Z,100239.34
2022-09-09T14:20:54.188Z,100236.41
2022-09-09T14:23:22.962Z,100238.06
2022-09-09T14:25:50.185Z,100240.16
2022-09-09T14:31:01.003Z,100241.66
2022-09-09T14:33:30.180Z,100235.16
2022-09-09T14:35:58.667Z,100231.41
2022-09-09T14:38:25.619Z,100231.63
2022-09-09T14:40:52.377Z,100233.91
2022-09-09T14:43:19.094Z,100227.84
2022-09-09T14:45:45.888Z,100231.59
2022-09-09T14:48:12.654Z,100229.94
2022-09-09T14:50:42.953Z,100232.03
2022-09-09T14:53:10.461Z,100248.13
2022-09-09T14:55:38.218Z,100241.81
2022-09-09T14:58:05.122Z,100238.38
2022-09-09T15:00:31.980Z,100233.84
2022-09-09T15:02:58.908Z,100240.88
2022-09-09T15:05:25.757Z,100239.69
2022-09-09T15:08:00.273Z,100239.47
2022-09-09T15:10:32.745Z,100231.00
2022-09-09T15:13:04.439Z,100239.34
2022-09-09T15:15:31.381Z,100230.03
2022-09-09T15:17:58.282Z,100223.22
2022-09-09T15:20:42.512Z,100227.00
2022-09-09T15:24:57.918Z,100228.22
2022-09-09T15:27:10.909Z,100229.22
2022-09-09T15:29:47.743Z,100229.50
2022-09-09T15:32:14.569Z,100229.28
2022-09-09T15:34:41.354Z,100236.59
2022-09-09T15:37:11.879Z,100238.41
2022-09-09T15:39:39.068Z,100249.22
2022-09-09T15:42:05.941Z,100238.31
2022-09-09T15:44:39.818Z,100238.94
2022-09-09T15:47:06.545Z,100231.94
2022-09-09T15:49:33.311Z,100227.19
2022-09-09T15:52:04.623Z,100217.34
2022-09-09T15:54:40.196Z,100221.47
2022-09-09T15:57:09.064Z,100217.19
2022-09-09T15:59:39.548Z,100212.91
2022-09-09T16:02:06.447Z,100223.19
2022-09-09T16:04:35.137Z,100216.22
2022-09-09T16:07:06.601Z,100219.84
2022-09-09T16:09:34.638Z,100223.94
2022-09-09T16:12:02.262Z,100227.38
2022-09-09T16:14:30.098Z,100226.50
2022-09-09T16:16:57.690Z,100229.13
2022-09-09T16:19:24.419Z,100234.13
2022-09-09T16:21:51.304Z,100247.97
2022-09-09T16:24:37.178Z,100247.22
2022-09-09T16:27:04.282Z,100244.13
2022-09-09T16:29:31.059Z,100251.22
2022-09-09T16:32:02.692Z,100247.16
2022-09-09T16:34:30.606Z,100255.31
2022-09-09T16:36:57.405Z,100253.94
2022-09-09T16:39:24.310Z,100255.91
2022-09-09T16:42:01.769Z,100251.16
2022-09-09T16:44:34.656Z,100248.47
2022-09-09T16:47:04.501Z,100252.72
2022-09-09T16:49:31.495Z,100238.03
2022-09-09T16:52:01.124Z,100236.28
2022-09-09T16:54:28.328Z,100242.06
2022-09-09T16:56:55.190Z,100239.94
2022-09-09T16:59:22.715Z,100237.75
2022-09-09T17:01:52.041Z,100243.94
2022-09-09T17:04:27.608Z,100248.56
2022-09-09T17:06:55.649Z,100249.88
2022-09-09T17:09:23.838Z,100249.94
2022-09-09T17:11:53.361Z,100240.44
2022-09-09T17:14:21.684Z,100250.63
2022-09-09T17:16:48.467Z,100246.69
2022-09-09T17:19:15.503Z,100244.22
2022-09-09T17:22:05.866Z,100244.25
2022-09-09T17:24:30.318Z,100246.88
2022-09-09T17:26:58.593Z,100250.47
2022-09-09T17:29:26.121Z,100254.25
2022-09-09T17:31:53.831Z,100251.53
2022-09-09T17:34:24.311Z,100243.47
2022-09-09T17:36:51.180Z,100247.09
2022-09-09T17:39:17.919Z,100233.78
2022-09-09T17:41:44.730Z,100236.81
2022-09-09T17:44:12.471Z,100237.53
2022-09-09T17:46:41.629Z,100247.31
2022-09-09T17:49:14.185Z,100245.81
2022-09-09T17:51:43.955Z,100256.28
2022-09-09T17:54:16.083Z,100252.59
2022-09-09T17:56:43.372Z,100264.75
2022-09-09T17:59:13.208Z,100254.31
2022-09-09T18:01:41.990Z,100258.69
2022-09-09T18:04:10.399Z,100257.53
2022-09-09T18:06:39.589Z,100251.13
2022-09-09T18:09:13.391Z,100258.22
2022-09-09T18:11:46.436Z,100257.22
2022-09-09T18:14:17.561Z,100249.06
2022-09-09T18:16:44.808Z,100256.50
2022-09-09T18:19:14.033Z,100252.94
2022-09-09T18:21:42.809Z,100253.97
2022-09-09T18:24:11.761Z,100258.88
2022-09-09T18:26:40.050Z,100267.44
2022-09-09T18:29:09.811Z,100254.97
2022-09-09T18:31:40.024Z,100271.84
2022-09-09T18:34:10.114Z,100275.34
2022-09-09T18:36:48.047Z,100280.03
2022-09-09T18:39:34.032Z,100290.81
2022-09-09T18:42:21.607Z,100299.19
2022-09-09T18:44:48.495Z,100309.94
2022-09-09T18:47:21.186Z,100310.81
2022-09-09T18:49:51.257Z,100324.38
2022-09-09T18:52:23.723Z,100327.41
2022-09-09T18:54:51.439Z,100327.88
2022-09-09T18:57:18.756Z,100336.25
2022-09-09T18:59:45.471Z,100334.38
2022-09-09T19:02:12.334Z,100332.84
2022-09-09T19:04:39.125Z,100331.97
2022-09-09T19:07:07.986Z,100334.94
2022-09-09T19:09:35.251Z,100338.97
2022-09-09T19:12:02.468Z,100338.44
2022-09-09T19:14:29.907Z,100329.00
2022-09-09T19:16:56.758Z,100328.31
2022-09-09T19:19:29.576Z,100336.03
2022-09-09T19:21:57.752Z,100341.66
2022-09-09T19:24:27.710Z,100333.53
2022-09-09T19:26:57.931Z,100338.06
2022-09-09T19:29:26.755Z,100335.47
2022-09-09T19:32:36.427Z,100334.84
2022-09-09T19:34:44.214Z,100326.56
2022-09-09T19:37:12.394Z,100334.25
2022-09-09T19:39:41.997Z,100332.03
2022-09-09T19:42:08.890Z,100331.88
2022-09-09T19:44:35.636Z,100326.66
2022-09-09T19:47:03.190Z,100332.72
2022-09-09T19:49:32.473Z,100322.72
2022-09-09T19:52:04.930Z,100320.50
2022-09-09T19:54:49.029Z,100315.28
2022-09-09T19:57:27.655Z,100321.66
2022-09-09T20:00:04.489Z,100314.28
2022-09-09T20:02:58.094Z,100317.97
2022-09-09T20:05:40.369Z,100319.97
2022-09-09T20:08:15.240Z,100322.81
2022-09-09T20:10:53.344Z,100326.50
2022-09-09T20:13:25.741Z,100333.00
2022-09-09T20:16:08.060Z,100328.50
2022-09-09T20:18:51.123Z,100330.72
2022-09-09T20:21:23.204Z,100333.56
2022-09-09T20:23:55.823Z,100333.16
2022-09-09T20:26:38.967Z,100330.19
2022-09-09T20:29:49.040Z,100333.25
2022-09-09T20:32:10.705Z,100331.81
2022-09-09T20:34:38.273Z,100335.19
2022-09-09T20:37:06.106Z,100333.25
2022-09-09T20:39:39.959Z,100339.84
2022-09-09T20:42:08.518Z,100337.91
2022-09-09T20:44:35.379Z,100339.22
2022-09-09T20:47:07.227Z,100332.69
2022-09-09T20:49:37.037Z,100326.50
2022-09-09T20:52:03.963Z,100330.78
2022-09-09T20:54:30.805Z,100317.94
2022-09-09T20:56:57.546Z,100319.94
2022-09-09T20:59:26.183Z,100312.78
2022-09-09T21:01:53.664Z,100309.19
2022-09-09T21:04:21.636Z,100311.00
2022-09-09T21:06:50.208Z,100307.09
2022-09-09T21:09:17.927Z,100299.66
2022-09-09T21:11:44.904Z,100304.50
2022-09-09T21:14:12.046Z,100301.19
2022-09-09T21:16:38.747Z,100300.81
2022-09-09T21:19:05.509Z,100301.19
2022-09-09T21:21:32.393Z,100305.81
2022-09-09T21:24:00.652Z,100312.91
2022-09-09T21:26:27.909Z,100314.13
2022-09-09T21:29:04.957Z,100306.72
2022-09-09T21:31:31.824Z,100315.44
2022-09-09T21:33:59.150Z,100316.44
2022-09-09T21:36:28.490Z,100318.75
2022-09-09T21:38:56.457Z,100319.66
2022-09-09T21:41:23.504Z,100323.47
2022-09-09T21:43:53.050Z,100324.31
2022-09-09T21:46:20.506Z,100327.72
2022-09-09T21:48:50.843Z,100329.44
2022-09-09T21:51:18.573Z,100340.19
2022-09-09T21:53:45.816Z,100329.44
2022-09-09T21:56:15.253Z,100344.06
2022-09-09T21:58:44.937Z,100338.38
2022-09-09T22:01:21.012Z,100332.59
2022-09-09T22:03:49.887Z,100334.56
2022-09-09T22:06:19.826Z,100335.28
2022-09-09T22:08:59.905Z,100332.75
2022-09-09T22:11:37.205Z,100335.88
2022-09-09T22:14:04.449Z,100329.50
2022-09-09T22:19:23.306Z,100333.34
2022-09-09T22:21:50.312Z,100321.91
2022-09-09T22:24:17.564Z,100329.84
2022-09-09T22:26:44.419Z,100324.75
2022-09-09T22:29:12.061Z,100333.34
2022-09-09T22:31:39.048Z,100331.50
2022-09-09T22:34:09.025Z,100332.38
2022-09-09T22:36:36.829Z,100330.66
2022-09-09T22:39:04.841Z,100325.16
2022-09-09T22:41:32.442Z,100326.44
2022-09-09T22:44:02.528Z,100327.44
2022-09-09T22:46:29.980Z,100318.69
2022-09-09T22:48:57.162Z,100322.06
2022-09-09T22:51:24.413Z,100321.38
2022-09-09T22:53:51.327Z,100320.09
2022-09-09T22:56:19.589Z,100315.56
2022-09-09T22:58:47.722Z,100313.31
2022-09-09T23:01:17.514Z,100323.19
2022-09-09T23:03:47.784Z,100324.19
2022-09-09T23:06:22.558Z,100329.03
2022-09-09T23:08:56.112Z,100330.31
2022-09-09T23:11:26.418Z,100333.41
2022-09-09T23:13:54.609Z,100334.38
2022-09-09T23:16:39.678Z,100328.91
2022-09-09T23:19:10.937Z,100313.94
2022-09-09T23:21:39.332Z,100318.03
2022-09-09T23:24:07.229Z,100309.44
2022-09-09T23:26:34.814Z,100308.63
2022-09-09T23:29:02.563Z,100312.16
2022-09-09T23:31:33.378Z,100307.34
2022-09-09T23:34:01.373Z,100316.22
2022-09-09T23:36:29.770Z,100309.19
2022-09-09T23:39:03.009Z,100307.19
2022-09-09T23:41:30.819Z,100312.97
2022-09-09T23:43:57.812Z,100308.03
2022-09-09T23:46:28.707Z,100306.34
2022-09-09T23:48:57.567Z,100310.84
2022-09-09T23:51:28.215Z,100305.81
2022-09-09T23:53:57.196Z,100299.31
2022-09-09T23:56:30.018Z,100291.69
2022-09-09T23:58:56.829Z,100290.41
